Предлагаем Вашему вниманию английскую версию страницы: AUTOTAF.ME 28537 - aviation weather forecast Duvan

AUTOTAF 28537 - авиапрогноз Дуван

Сегодня рассвет 02:15 UTC, восход солнца 02:53 UTC,
местный полдень 07:52 UTC, заход солнца 12:52 UTC,
наступление темноты 13:30 UTC.

Краткий прогноз 28537 на 9 часов

AUTOTAF.ME 28537 212000Z 2121/2206 28009G14MPS 9000 BR BKN011    
  FM220000 28009G14MPS 9999 BKN011

Детальный прогноз 28537 на 24 часа

AUTOTAF.ME 28537 212000Z 2121/2221 28009G14MPS 9000 BR BKN011 TXM01/2209Z TNM03/2203Z  
  FM220000 28009G14MPS 9999 BKN011   
  BECMG 2207/2209 -SN DRSN  
  FM221200 27009G14MPS 9000 HZ BKN012 
  FM221500 29010MPS 9999 -SN BLSN OVC004 
  FM221800 30007G12MPS 9999 -SHSN BKN013CB

Подробный табличный прогноз

Время (UTC) miniAUTOTAF на 3 ч WX FZLVL
M AGL
ICE TURB Т
(°С)
Тd
(°С)
f(%) QNH
(гПа)
WIND/T
18 29010G15MPS 9999 -SN DRSN BKN009 -SN DRSN SFC MOD FL20/FL30 MOD SFC/FL40 -1 -4 81 1007 ...
21 28009G14MPS 9000 BR BKN011 BR SFC MOD FL20/FL30 MOD SFC/FL40 -2 -5 82 1007 ...
22.10.2020
00 28009G14MPS 9999 BKN011 SFC MOD FL20/FL30 MOD FL40/FL50 -2 -5 81 1008 ...
03 29008G13MPS 9999 BKN012 SFC MOD FL20/FL30 MOD SFC/FL40 -3 -6 78 1009 ...
06 29010G15MPS 9999 BKN010 SFC MOD FL20/FL110 MOD FL30/FL40 -2 -6 70 1010 ...
09 28010G15MPS 9999 -SN DRSN OVC010 -SN DRSN SFC FBL FL40/FL120 MOD FL30/FL40 -1 -6 67 1010 ...
12 27009G14MPS 9000 HZ BKN012 HZ SFC MOD FL20/FL30 MOD FL30/FL40 -1 -5 78 1012 ...
15 29010MPS 9999 -SN BLSN OVC004 -SN BLSN SFC FBL FL20/FL110 -2 -3 90 1013 ...
18 30007G12MPS 9999 -SHSN BKN013CB -SHSN SFC MOD FL20/FL110 MOD SFC/FL30 -3 -6 78 1014 ...
21 31007MPS 9999 BKN013 SFC MOD FL20/FL90 MOD SFC/FL30 -3 -6 78 1015 ...
23.10.2020
00 30007MPS 9999 BKN013 SFC MOD FL20/FL50 MOD SFC/FL30 -4 -7 80 1016 ...
03 28003MPS 9999 BKN007 SFC FBL FL20/FL40 MOD SFC/FL30 -5 -7 85 1017 ...
06 28006MPS 9999 BKN014 SFC MOD FL20/FL30 MOD SFC/FL30 -3 -8 68 1018 ...
09 25005MPS 9999 BKN021 SFC FBL FL40/FL50 MOD SFC/FL40 -1 -7 62 1018 ...
12 23006MPS 9999 BKN014 SFC FBL FL40/FL50 MOD SFC/FL40 -1 -7 66 1017 ...
15 VRB02MPS 9999 BKN014 SFC MOD FL20/FL30 -3 -6 79 1017 ...


Широта 55.7°, долгота 57.9°, высота 338 м абс.
Средняя высота рельефа местности 322 м абс.
Прогнозы обновляются четыре раза в сутки: в 02, 08, 14, 20 ч всемирного времени.


Выбрать прогноз по другой модели Дуван
Онлайн-сводка гроз по Дуван (для РФ и ближнего зарубежья)
Карта фактических гроз в окрестностях Дуван
Динамические прогностические карты (ventusky.com)
Прогностическая карта высоты нижней границы облаков по Дуван (windy.com)
Выбрать другой город

Прогноз предназначен для личного научно-познавательного использования частными лицами
и не предназначен для принятия важных решений и выполнения реальных полётов воздушных судов

При копировании или ином использовании любых материалов данного сайта ссылка на © meteocenter.asia обязательна.

0.84/1.3